DW9779 Galveston TX US current weather conditions

sailwx.info

Wind from 107 at 4 knots gusting 7

Air temperature 20.6° C
Dewpoint 16.6° C

Last reported at 2019-Dec-08 21:01 UTC.
Time now 2019-Dec-08 21:19 UTC

Location: N 29°18' W 094°52'.
View on Google Maps.

See reports from other nearby stations

  
Tides and Currents Weather Stations Pressure Air Temp Water Temp Dewpoint Dewpoint Depression Visibility Wind Speed Wind Dir Waves Ship Positions
date/time (UTC)wind fromknots sea level pressurealtimeterstation pressurevisibilityair tempwater tempwave heightnotes
2019-Dec-08 21:01 107 4 gusting 7 20.6
2019-Dec-08 20:47 132 5 gusting 10 20.6
2019-Dec-08 20:32 155 6 gusting 10 20.6
2019-Dec-08 20:16 142 6 gusting 12 20.6
2019-Dec-08 20:02 161 5 gusting 9 20.6
2019-Dec-08 19:46 162 3 gusting 8 20.6
2019-Dec-08 19:32 137 6 gusting 9 20.6
2019-Dec-08 19:16 117 5 gusting 8 20.6
2019-Dec-08 19:01 136 5 gusting 7 20.0
2019-Dec-08 18:46 123 4 gusting 7 20.0
2019-Dec-08 18:31 119 4 gusting 7 20.0
2019-Dec-08 18:16 131 5 gusting 8 20.0
2019-Dec-08 18:01 137 6 gusting 10 20.0
2019-Dec-08 17:46 098 5 gusting 11 20.6
2019-Dec-08 17:30 148 4 gusting 10 20.6
2019-Dec-08 17:15 126 6 gusting 10 20.0
2019-Dec-08 17:00 115 5 gusting 9 20.0
2019-Dec-08 16:45 127 4 gusting 7 20.0
2019-Dec-08 16:30 117 4 gusting 8 20.0
2019-Dec-08 16:15 109 4 gusting 8 19.4
2019-Dec-08 16:00 119 5 gusting 8 19.4
2019-Dec-08 15:45 092 2 gusting 7 18.9
2019-Dec-08 15:30 089 4 gusting 8 18.9
2019-Dec-08 15:15 360 4 gusting 7 18.3
2019-Dec-08 15:00 112 4 gusting 8 17.8
2019-Dec-08 14:45 103 5 gusting 8 17.8
2019-Dec-08 14:30 086 6 gusting 9 17.8
2019-Dec-08 14:16 094 5 gusting 7 17.2
2019-Dec-08 14:01 092 4 gusting 7 16.7
2019-Dec-08 13:46 360 3 gusting 6 16.7
2019-Dec-08 13:31 360 3 gusting 6 16.1
2019-Dec-08 13:16 360 2 gusting 5 15.6
2019-Dec-08 13:02 095 1 gusting 3 15.0
2019-Dec-08 12:47 093 1 gusting 5 15.6
2019-Dec-08 12:31 094 2 gusting 5 15.6
2019-Dec-08 12:17 090 2 gusting 5 15.0
2019-Dec-08 12:01 090 2 gusting 5 15.0
2019-Dec-08 11:46 096 1 gusting 3 15.0
2019-Dec-08 11:30 096 2 gusting 3 15.0
2019-Dec-08 11:16 096 1 gusting 3 15.0
2019-Dec-08 11:01 360 2 gusting 3 15.0
2019-Dec-08 10:46 360 1 gusting 3 15.0
2019-Dec-08 10:31 091 2 gusting 3 15.0
2019-Dec-08 10:16 091 1 gusting 2 15.6
2019-Dec-08 10:02 089 1 gusting 3 15.6
2019-Dec-08 09:47 092 1 gusting 3 15.6
2019-Dec-08 09:31 091 2 gusting 5 15.6
2019-Dec-08 09:17 083 2 gusting 6 15.6
2019-Dec-08 09:00 111 0 gusting 3 15.6
2019-Dec-08 08:46 107 1 gusting 3 15.6
2019-Dec-08 08:31 105 1 gusting 3 15.6
2019-Dec-08 08:17 109 1 gusting 3 15.6
2019-Dec-08 08:01 092 2 gusting 5 15.6
2019-Dec-08 07:46 081 2 gusting 5 15.6
2019-Dec-08 07:30 109 1 gusting 4 15.6
2019-Dec-08 07:15 360 1 gusting 3 15.6
2019-Dec-08 07:01 118 0 gusting 5 15.6
2019-Dec-08 06:46 117 3 gusting 6 15.6
2019-Dec-08 06:31 103 1 gusting 3 15.6
2019-Dec-08 06:15 111 1 gusting 2 15.6
2019-Dec-08 06:00 111 1 gusting 3 15.0
2019-Dec-08 05:45 360 2 gusting 3 15.0
2019-Dec-08 05:30 092 1 gusting 3 15.6
2019-Dec-08 05:15 094 1 gusting 3 15.6
2019-Dec-08 05:00 103 1 gusting 3 15.6
2019-Dec-08 04:45 105 1 gusting 2 15.6
2019-Dec-08 04:30 104 1 gusting 3 15.6
2019-Dec-08 04:15 107 1 gusting 3 15.6
2019-Dec-08 04:00 102 1 gusting 5 15.6
2019-Dec-08 03:45 106 1 gusting 5 15.6
2019-Dec-08 03:30 105 1 gusting 5 15.6
2019-Dec-08 03:15 105 2 gusting 5 15.6
2019-Dec-08 03:00 101 2 gusting 5 15.6
2019-Dec-08 02:45 109 2 gusting 5 16.1
2019-Dec-08 02:30 119 1 gusting 5 16.1
2019-Dec-08 02:15 115 1 gusting 5 16.1
2019-Dec-08 02:00 111 2 gusting 5 16.1
2019-Dec-08 01:45 117 2 gusting 5 16.1
2019-Dec-08 01:30 124 1 gusting 3 16.1
2019-Dec-08 01:15 113 2 gusting 5 16.1
2019-Dec-08 01:00 121 3 gusting 6 16.7
2019-Dec-08 00:45 121 3 gusting 6 16.7
2019-Dec-08 00:32 122 2 gusting 7 16.7
2019-Dec-08 00:16 116 4 gusting 6 16.7
2019-Dec-08 00:01 126 2 gusting 5 17.2
2019-Dec-07 23:46 119 2 gusting 5 17.8
2019-Dec-07 23:32 049 2 gusting 4 18.3
2019-Dec-07 23:16 360 3 gusting 5 18.3
2019-Dec-07 23:03 005 4 gusting 6 18.9
2019-Dec-07 22:46 011 4 gusting 6 18.9
2019-Dec-07 22:32 360 5 gusting 6 19.4
2019-Dec-07 22:16 360 6 gusting 7 19.4
2019-Dec-07 22:02 360 6 gusting 7 19.4
2019-Dec-07 21:46 005 3 gusting 5 18.9
2019-Dec-07 21:32 013 3 gusting 6 18.9
2019-Dec-07 21:16 012 6 gusting 6 18.3
2019-Dec-07 21:01 016 6 gusting 7 18.3
2019-Dec-07 20:46 005 6 gusting 8 17.8
2019-Dec-07 20:31 015 6 gusting 7 17.8
2019-Dec-07 20:15 360 5 gusting 7 17.8
2019-Dec-07 20:00 355 6 gusting 8 17.2
2019-Dec-07 19:45 355 6 gusting 9 17.2
2019-Dec-07 19:31 360 7 gusting 10 16.7
2019-Dec-07 19:15 360 9 gusting 11 16.7
2019-Dec-07 19:01 005 9 gusting 11 16.7
2019-Dec-07 18:45 360 8 gusting 12 16.7
2019-Dec-07 18:31 005 10 gusting 13 16.1
2019-Dec-07 18:15 355 11 gusting 13 15.6
2019-Dec-07 18:00 360 11 gusting 13 15.6
2019-Dec-07 17:45 355 12 gusting 14 15.6
2019-Dec-07 17:31 355 11 gusting 13 15.6
2019-Dec-07 17:15 017 10 gusting 12 15.0
2019-Dec-07 17:01 023 10 gusting 13 15.0
2019-Dec-07 16:46 011 11 gusting 14 15.0
2019-Dec-07 16:30 020 12 gusting 16 14.4
2019-Dec-07 16:16 015 13 gusting 17 14.4
2019-Dec-07 16:00 005 15 gusting 17 14.4
2019-Dec-07 15:46 005 14 gusting 18 15.0
2019-Dec-07 15:30 011 13 gusting 19 15.0
2019-Dec-07 15:15 010 14 gusting 18 14.4
2019-Dec-07 15:01 015 15 gusting 18 14.4
2019-Dec-07 14:45 009 14 gusting 17 15.0
2019-Dec-07 14:30 009 14 gusting 18 15.0
2019-Dec-07 14:15 360 14 gusting 18 15.0
2019-Dec-07 14:00 005 14 gusting 17 15.0
2019-Dec-07 13:46 017 14 gusting 17 15.0
2019-Dec-07 13:30 005 14 gusting 18 15.0
2019-Dec-07 13:15 005 14 gusting 19 15.0
2019-Dec-07 13:00 005 14 gusting 18 15.0
2019-Dec-07 12:45 005 14 gusting 17 15.0
2019-Dec-07 12:30 011 13 gusting 16 15.0
2019-Dec-07 12:15 360 13 gusting 15 15.0
2019-Dec-07 12:00 005 13 gusting 16 15.0
2019-Dec-07 11:45 355 13 gusting 16 15.0
2019-Dec-07 11:16 355 15 gusting 19 15.6
2019-Dec-07 11:01 005 14 gusting 17 15.6
2019-Dec-07 10:47 005 13 gusting 18 15.6
2019-Dec-07 10:31 355 14 gusting 17 15.6
2019-Dec-07 10:16 005 15 gusting 18 15.6
2019-Dec-07 10:01 005 15 gusting 19 16.1
2019-Dec-07 09:47 005 15 gusting 19 16.1
2019-Dec-07 09:31 355 15 gusting 19 16.1
2019-Dec-07 09:16 005 16 gusting 19 16.1
2019-Dec-07 09:02 355 14 gusting 19 16.1
2019-Dec-07 08:46 355 15 gusting 19 16.1
2019-Dec-07 08:31 355 15 gusting 19 16.7
2019-Dec-07 08:16 347 13 gusting 19 16.7
2019-Dec-07 08:00 338 13 gusting 18 16.7
2019-Dec-07 07:46 337 13 gusting 19 16.7
2019-Dec-07 07:31 343 13 gusting 18 17.2
2019-Dec-07 07:16 355 13 gusting 18 17.2
2019-Dec-07 07:00 347 15 gusting 19 17.2
2019-Dec-07 06:46 350 15 gusting 19 17.2
2019-Dec-07 06:31 348 15 gusting 19 17.2
2019-Dec-07 06:16 355 13 gusting 18 17.2
2019-Dec-07 06:00 346 13 gusting 17 17.2
2019-Dec-07 05:45 341 14 gusting 18 17.8
2019-Dec-07 05:31 347 13 gusting 17 17.8
2019-Dec-07 05:15 355 14 gusting 18 17.8
2019-Dec-07 05:00 348 13 gusting 17 17.8
2019-Dec-07 04:45 342 12 gusting 16 17.8
2019-Dec-07 04:30 344 13 gusting 18 17.8
2019-Dec-07 04:16 355 13 gusting 17 17.8
2019-Dec-07 04:00 346 13 gusting 16 17.8
2019-Dec-07 03:46 350 13 gusting 17 17.8
2019-Dec-07 03:30 346 14 gusting 17 17.8
2019-Dec-07 03:15 348 13 gusting 16 17.8
2019-Dec-07 03:00 346 13 gusting 17 17.8
2019-Dec-07 02:45 351 13 gusting 16 17.8
2019-Dec-07 02:30 348 13 gusting 19 17.8
2019-Dec-07 02:15 355 15 gusting 19 17.8
2019-Dec-07 02:00 342 16 gusting 19 18.3
2019-Dec-07 01:45 346 12 gusting 19 18.3
2019-Dec-07 01:16 355 14 gusting 20 18.9
2019-Dec-07 01:02 005 13 gusting 16 18.9
2019-Dec-07 00:46 355 13 gusting 16 19.4
2019-Dec-07 00:31 346 13 gusting 17 19.4
2019-Dec-07 00:16 349 12 gusting 15 19.4
2019-Dec-07 00:01 345 13 gusting 16 20.0
2019-Dec-06 23:46 360 14 gusting 17 20.0
2019-Dec-06 23:31 360 13 gusting 16 20.0
2019-Dec-06 23:16 331 13 gusting 18 20.6
2019-Dec-06 23:02 355 13 gusting 15 20.6
2019-Dec-06 22:47 351 11 gusting 13 20.6
2019-Dec-06 22:31 338 8 gusting 13 21.7
2019-Dec-06 22:16 320 11 gusting 13 21.7
2019-Dec-06 22:00 327 11 gusting 13 21.7
2019-Dec-06 21:46 323 8 gusting 14 22.2
2019-Dec-06 21:31 305 10 gusting 14 22.2
2019-Dec-06 21:16 317 9 gusting 13 22.2
2019-Dec-06 21:01 304 11 gusting 13 22.2